Time;durP1;ratioP1;P1;durP2;ratioP2;P2;SDS_P1;SDS_P2;PMS_P1;PMS_P2;Temp;Humidity;BMP_temperature;BMP_pressure;BME280_temperature;BME280_humidity;BME280_pressure;Samples;Min_cycle;Max_cycle;Signal;HPM_P1;HPM_P2
2021/06/17 00:02:08;;;;;;;7.10;3.88;;;;;;;14.28;67.41;100141.41;5070143;28;20127;-70
2021/06/17 00:04:34;;;;;;;11.50;3.70;;;;;;;14.36;67.57;100158.72;5052881;28;20045;-68
2021/06/17 00:07:00;;;;;;;9.32;4.43;;;;;;;14.30;68.03;100162.41;5052700;28;20143;-67
2021/06/17 00:09:27;;;;;;;9.55;4.05;;;;;;;14.27;68.15;100155.47;5069162;28;20052;-66
2021/06/17 00:11:59;;;;;;;12.63;4.95;;;;;;;14.20;68.90;100151.31;5051799;28;20036;-69
2021/06/17 00:14:25;;;;;;;8.88;3.88;;;;;;;14.24;68.57;100165.25;5034265;28;20041;-67
2021/06/17 00:16:51;;;;;;;15.43;4.55;;;;;;;14.12;68.46;100155.09;5054253;28;20048;-67
2021/06/17 00:19:17;;;;;;;16.55;5.07;;;;;;;14.15;68.76;100170.81;5052595;28;20505;-69
2021/06/17 00:21:42;;;;;;;16.48;4.63;;;;;;;14.03;68.72;100152.75;5053368;28;20077;-68
2021/06/17 00:24:08;;;;;;;9.45;4.05;;;;;;;14.10;69.00;100170.91;5052923;28;20052;-67
2021/06/17 00:26:34;;;;;;;11.57;4.15;;;;;;;14.08;69.17;100179.75;5051295;28;20178;-68
2021/06/17 00:29:00;;;;;;;11.32;4.25;;;;;;;13.94;69.36;100161.78;5052737;28;20056;-66
2021/06/17 00:31:26;;;;;;;10.80;4.10;;;;;;;13.94;68.84;100165.28;5053788;28;20041;-68
2021/06/17 00:33:52;;;;;;;8.52;4.53;;;;;;;13.97;69.26;100188.84;5034123;28;20513;-68
2021/06/17 00:36:17;;;;;;;12.15;4.20;;;;;;;13.80;69.36;100171.88;5035212;28;20052;-73
2021/06/17 00:38:43;;;;;;;11.63;4.03;;;;;;;13.88;68.23;100189.13;5052770;28;20134;-67
2021/06/17 00:41:09;;;;;;;13.15;4.70;;;;;;;13.85;67.74;100194.50;5052004;28;20041;-67
2021/06/17 00:43:35;;;;;;;5.60;3.50;;;;;;;13.81;69.03;100189.38;5050299;28;20071;-68
2021/06/17 00:46:01;;;;;;;10.70;3.67;;;;;;;13.89;68.65;100192.63;5050640;28;20041;-68
2021/06/17 00:48:27;;;;;;;8.63;4.03;;;;;;;13.90;67.61;100196.97;5052459;28;20087;-69
2021/06/17 00:50:56;;;;;;;8.93;3.38;;;;;;;13.92;67.34;100201.28;5034848;28;20080;-67
2021/06/17 00:53:27;;;;;;;10.07;3.33;;;;;;;13.92;68.28;100205.69;5068704;28;20040;-68
2021/06/17 00:55:53;;;;;;;10.25;3.80;;;;;;;13.95;68.84;100210.84;5068516;28;20045;-68
2021/06/17 00:58:20;;;;;;;9.75;3.80;;;;;;;13.83;69.16;100198.06;5052948;28;20064;-69
2021/06/17 01:00:46;;;;;;;11.10;4.15;;;;;;;13.82;69.31;100204.25;5018480;28;20052;-66
2021/06/17 01:03:12;;;;;;;10.55;3.80;;;;;;;13.83;69.43;100214.72;5051008;28;20045;-67
2021/06/17 01:05:39;;;;;;;8.13;3.38;;;;;;;13.85;69.33;100219.91;5053553;28;20498;-68
2021/06/17 01:08:19;;;;;;;6.00;3.38;;;;;;;13.87;69.09;100228.63;5052607;28;20060;-68
2021/06/17 01:10:54;;;;;;;7.50;3.20;;;;;;;13.86;68.77;100237.41;5052859;28;20191;-68
2021/06/17 01:13:33;;;;;;;7.78;3.63;;;;;;;13.84;69.11;100220.81;5051492;28;20198;-68
2021/06/17 01:16:19;;;;;;;13.77;3.78;;;;;;;13.84;69.07;100219.06;5018716;28;20037;-68
2021/06/17 01:18:51;;;;;;;8.88;4.10;;;;;;;13.98;69.03;100235.28;5068675;28;20037;-68
2021/06/17 01:21:30;;;;;;;9.18;3.83;;;;;;;14.03;68.83;100235.16;5054003;28;20040;-68
2021/06/17 01:24:10;;;;;;;12.82;4.40;;;;;;;14.08;68.80;100242.91;5053315;28;20098;-68
2021/06/17 01:27:17;;;;;;;9.05;4.25;;;;;;;14.05;69.04;100233.31;5035625;28;20052;-68
2021/06/17 01:29:51;;;;;;;8.18;3.78;;;;;;;14.03;68.62;100229.88;5052626;28;20601;-68
2021/06/17 01:32:18;;;;;;;8.30;3.45;;;;;;;14.00;68.72;100236.09;5052041;28;20060;-68
2021/06/17 01:34:45;;;;;;;6.55;3.72;;;;;;;13.97;68.89;100245.84;5051651;28;20532;-73
2021/06/17 01:37:12;;;;;;;8.50;3.80;;;;;;;13.95;68.78;100234.50;5035414;28;20045;-67
2021/06/17 01:39:39;;;;;;;18.90;4.07;;;;;;;14.02;68.40;100241.31;5051281;28;20048;-67
2021/06/17 01:42:07;;;;;;;13.07;3.70;;;;;;;13.90;67.81;100233.78;5051324;28;20106;-67
2021/06/17 01:44:34;;;;;;;12.15;4.07;;;;;;;14.08;65.93;100242.91;5050150;28;20136;-69
2021/06/17 01:47:02;;;;;;;16.30;4.97;;;;;;;14.22;64.04;100257.38;5033407;28;20062;-68
2021/06/17 01:49:28;;;;;;;12.05;3.55;;;;;;;14.50;62.38;100251.28;5050074;28;20037;-68
2021/06/17 01:51:56;;;;;;;17.52;4.30;;;;;;;14.57;62.21;100231.75;5065801;28;20056;-66
2021/06/17 01:54:24;;;;;;;8.88;3.70;;;;;;;14.68;63.48;100232.25;5051307;28;20053;-69
2021/06/17 01:56:52;;;;;;;11.02;3.83;;;;;;;14.81;64.25;100249.34;5066665;28;20047;-68
2021/06/17 01:59:19;;;;;;;20.83;4.45;;;;;;;14.82;63.87;100258.97;5049958;28;20033;-67
2021/06/17 02:01:48;;;;;;;10.32;3.83;;;;;;;14.86;65.72;100260.63;5049351;28;20053;-68
2021/06/17 02:04:14;;;;;;;8.45;3.83;;;;;;;14.92;65.92;100264.84;5050271;28;20068;-68
2021/06/17 02:06:41;;;;;;;6.35;3.67;;;;;;;14.86;64.29;100247.47;5049618;28;20127;-67
2021/06/17 02:09:08;;;;;;;8.48;3.78;;;;;;;15.00;63.94;100262.81;5049862;28;20491;-68
2021/06/17 02:11:36;;;;;;;7.82;3.53;;;;;;;15.08;65.35;100270.44;5049327;28;20458;-68
2021/06/17 02:14:02;;;;;;;13.23;4.10;;;;;;;15.15;65.45;100271.94;5016887;28;20041;-67
2021/06/17 02:16:29;;;;;;;10.02;4.05;;;;;;;15.24;65.99;100269.00;5050443;28;20037;-67
2021/06/17 02:18:56;;;;;;;13.75;3.72;;;;;;;15.19;65.97;100257.75;5067251;28;20110;-68
2021/06/17 02:21:24;;;;;;;13.23;3.55;;;;;;;15.40;65.94;100257.00;5050284;28;20429;-68
2021/06/17 02:23:53;;;;;;;8.35;3.67;;;;;;;16.58;63.37;100286.91;5050913;28;20308;-69
2021/06/17 02:26:18;;;;;;;9.00;4.18;;;;;;;17.83;58.53;100279.84;5033498;28;20135;-69
2021/06/17 02:28:46;;;;;;;11.15;3.58;;;;;;;18.93;53.43;100277.31;5066549;28;20053;-69
2021/06/17 02:31:14;;;;;;;15.27;3.97;;;;;;;19.79;52.24;100279.94;5050000;28;20045;-68
2021/06/17 02:33:40;;;;;;;13.30;4.30;;;;;;;20.68;50.98;100285.69;5050064;28;20452;-69
2021/06/17 02:36:06;;;;;;;8.93;4.05;;;;;;;21.47;48.60;100289.91;5049576;28;20045;-70
2021/06/17 02:38:39;;;;;;;12.43;3.85;;;;;;;22.14;47.19;100290.25;5049575;28;20091;-69
2021/06/17 02:41:07;;;;;;;10.50;3.67;;;;;;;22.76;45.32;100293.38;5049042;28;20045;-68
2021/06/17 02:43:35;;;;;;;14.00;4.35;;;;;;;23.34;44.20;100295.72;5049651;28;20040;-68
2021/06/17 02:46:02;;;;;;;10.38;4.00;;;;;;;23.81;43.18;100301.44;5048371;28;20077;-72
2021/06/17 02:48:28;;;;;;;8.82;3.50;;;;;;;24.29;42.41;100302.47;5049271;28;20051;-73
2021/06/17 02:50:53;;;;;;;7.20;3.15;;;;;;;24.75;40.73;100291.97;5049381;28;20192;-71
2021/06/17 02:53:21;;;;;;;12.63;3.88;;;;;;;25.23;40.01;100295.47;5050067;28;20123;-71
2021/06/17 02:55:48;;;;;;;7.68;3.40;;;;;;;25.63;39.80;100287.06;5050352;28;20045;-71
2021/06/17 02:58:26;;;;;;;15.20;3.60;;;;;;;25.57;38.22;100299.13;5048958;28;20103;-72
2021/06/17 03:00:58;;;;;;;5.93;3.08;;;;;;;26.23;32.08;100302.84;5048855;28;20387;-72
2021/06/17 03:03:50;;;;;;;9.45;3.28;;;;;;;26.22;30.52;100301.16;5065528;28;20041;-73
2021/06/17 03:06:26;;;;;;;12.25;3.47;;;;;;;26.75;36.52;100304.00;5042272;28;20044;-73
2021/06/17 03:09:03;;;;;;;11.27;4.00;;;;;;;27.41;36.43;100307.44;5064225;28;20063;-72
2021/06/17 03:11:33;;;;;;;10.75;3.67;;;;;;;27.88;32.78;100299.84;5049885;28;20037;-71
2021/06/17 03:14:05;;;;;;;10.07;3.40;;;;;;;28.29;31.08;100298.09;5015731;28;20055;-74
2021/06/17 03:16:32;;;;;;;10.57;3.47;;;;;;;28.64;31.12;100306.53;5049996;28;20064;-73
2021/06/17 03:19:00;;;;;;;16.83;3.03;;;;;;;28.86;27.22;100296.50;5048352;28;20044;-70
2021/06/17 03:21:32;;;;;;;11.85;3.92;;;;;;;28.98;31.00;100306.16;5048452;28;20045;-72
2021/06/17 03:23:58;;;;;;;8.77;2.90;;;;;;;29.33;27.51;100305.59;5015480;28;20052;-70
2021/06/17 03:26:26;;;;;;;12.13;3.13;;;;;;;29.04;30.06;100314.56;5049676;28;20049;-68
2021/06/17 03:28:53;;;;;;;9.00;3.00;;;;;;;28.44;29.08;100319.09;5049012;28;20056;-71
2021/06/17 03:31:19;;;;;;;10.10;3.97;;;;;;;28.85;30.31;100311.81;5065373;28;20063;-73
2021/06/17 03:33:46;;;;;;;13.43;3.63;;;;;;;29.15;26.85;100327.03;5031933;28;20053;-70
2021/06/17 03:36:13;;;;;;;12.35;3.33;;;;;;;29.94;28.69;100324.97;5064128;28;20106;-70
2021/06/17 03:38:40;;;;;;;6.35;2.80;;;;;;;30.38;26.11;100314.44;5049913;28;20128;-69
2021/06/17 03:41:06;;;;;;;8.25;2.78;;;;;;;31.09;24.09;100329.94;5047127;28;20159;-74
2021/06/17 03:43:34;;;;;;;10.57;2.70;;;;;;;30.84;24.29;100320.75;5047236;28;20040;-69
2021/06/17 03:46:00;;;;;;;9.38;2.63;;;;;;;31.02;23.50;100313.50;5063845;28;20131;-69
2021/06/17 03:48:26;;;;;;;7.20;2.40;;;;;;;30.15;24.50;100318.53;5064930;28;20045;-70
2021/06/17 03:50:52;;;;;;;8.10;2.58;;;;;;;30.41;24.98;100326.78;5046336;28;20047;-69
2021/06/17 03:53:21;;;;;;;11.07;3.28;;;;;;;30.99;23.74;100330.00;5063681;28;20118;-69
2021/06/17 03:55:48;;;;;;;5.80;2.45;;;;;;;31.71;23.15;100331.72;5046220;28;20037;-68
2021/06/17 03:58:13;;;;;;;11.88;2.60;;;;;;;32.36;22.57;100336.69;5047406;28;20139;-67
2021/06/17 04:00:39;;;;;;;9.68;2.60;;;;;;;32.67;22.08;100337.81;5047915;28;20157;-69
2021/06/17 04:03:07;;;;;;;10.07;2.55;;;;;;;32.58;22.74;100336.09;5047833;28;20041;-70
2021/06/17 04:05:37;;;;;;;5.65;2.30;;;;;;;31.93;22.24;100319.50;5062770;28;20049;-68
2021/06/17 04:08:05;;;;;;;5.30;2.50;;;;;;;32.37;21.79;100328.41;5046899;28;20044;-69
2021/06/17 04:10:31;;;;;;;7.13;2.38;;;;;;;33.00;21.64;100341.50;5045944;28;20063;-68
2021/06/17 04:12:58;;;;;;;9.82;2.83;;;;;;;33.18;21.45;100350.34;5046148;28;20131;-67
2021/06/17 04:15:25;;;;;;;9.98;2.63;;;;;;;32.95;21.13;100340.31;5045847;28;20091;-72
2021/06/17 04:17:55;;;;;;;7.72;2.58;;;;;;;32.81;21.69;100352.66;5028441;28;20037;-69
2021/06/17 04:20:27;;;;;;;21.17;3.05;;;;;;;32.12;22.37;100356.34;5048900;28;20041;-67
2021/06/17 04:22:54;;;;;;;7.35;2.38;;;;;;;32.74;21.11;100357.84;5064168;28;20107;-72
2021/06/17 04:25:21;;;;;;;5.80;2.42;;;;;;;32.20;21.94;100354.53;5052078;28;20051;-69
2021/06/17 04:27:48;;;;;;;14.77;2.60;;;;;;;32.16;21.89;100361.28;5043727;28;20044;-70
2021/06/17 04:30:16;;;;;;;14.35;2.92;;;;;;;31.61;22.05;100341.75;5047622;28;20099;-71
2021/06/17 04:32:45;;;;;;;15.80;2.83;;;;;;;32.61;21.10;100362.00;5048310;28;20131;-71
2021/06/17 04:35:11;;;;;;;12.38;2.78;;;;;;;32.91;21.29;100369.59;5049640;28;20045;-68
2021/06/17 04:37:37;;;;;;;15.32;2.75;;;;;;;33.14;20.81;100369.81;5068474;28;20135;-69
2021/06/17 04:40:04;;;;;;;11.70;2.60;;;;;;;33.01;20.84;100372.16;5052541;28;20132;-67
2021/06/17 04:42:30;;;;;;;10.85;3.08;;;;;;;32.84;21.02;100369.44;5035384;28;20037;-67
2021/06/17 04:44:57;;;;;;;17.15;4.60;;;;;;;33.01;19.81;100373.03;5050799;28;20135;-68
2021/06/17 04:47:23;;;;;;;13.38;4.80;;;;;;;32.75;20.62;100374.94;5052615;28;20033;-67
2021/06/17 04:49:50;;;;;;;13.80;4.15;;;;;;;32.46;20.82;100359.06;5050678;28;20055;-68
2021/06/17 04:52:22;;;;;;;18.10;3.88;;;;;;;32.99;20.46;100385.03;5049435;28;20045;-69
2021/06/17 04:54:48;;;;;;;15.52;5.05;;;;;;;33.66;19.34;100374.97;5049466;28;20135;-67
2021/06/17 04:57:14;;;;;;;17.45;4.50;;;;;;;33.32;20.22;100385.97;5047887;28;20596;-68
2021/06/17 04:59:40;;;;;;;14.20;4.28;;;;;;;33.89;19.15;100386.00;5050766;28;20131;-71
2021/06/17 05:02:06;;;;;;;10.95;4.13;;;;;;;34.31;19.60;100380.34;5048986;28;20087;-68
2021/06/17 05:04:34;;;;;;;10.18;3.80;;;;;;;34.69;18.88;100378.66;5049834;28;20125;-67
2021/06/17 05:12:10;;;;;;;9.65;2.38;;;;;;;33.94;18.68;100383.63;5047518;28;20130;-71
2021/06/17 05:14:36;;;;;;;10.55;2.67;;;;;;;34.48;17.78;100378.44;5050938;28;20502;-69
2021/06/17 05:17:02;;;;;;;5.68;2.15;;;;;;;34.47;18.16;100388.47;5064335;28;20052;-70
2021/06/17 05:19:28;;;;;;;8.05;2.00;;;;;;;34.02;18.83;100386.31;5049337;28;20041;-70
2021/06/17 05:21:54;;;;;;;9.40;1.65;;;;;;;34.52;17.15;100388.78;5047875;28;20047;-70
2021/06/17 05:24:20;;;;;;;6.03;1.45;;;;;;;34.07;17.92;100389.38;5048766;28;20107;-71
2021/06/17 05:26:46;;;;;;;2.88;1.48;;;;;;;33.84;18.00;100399.25;5048773;28;20041;-70
2021/06/17 05:29:12;;;;;;;10.20;1.65;;;;;;;33.91;17.99;100398.41;5048931;28;20044;-74
2021/06/17 05:31:37;;;;;;;10.00;1.52;;;;;;;33.88;17.52;100393.31;5051063;28;20049;-73
2021/06/17 05:34:03;;;;;;;2.97;1.30;;;;;;;34.12;16.70;100381.56;5068185;28;20387;-66
2021/06/17 05:36:29;;;;;;;6.63;1.60;;;;;;;34.62;16.39;100383.13;5066063;28;20045;-68
2021/06/17 05:38:54;;;;;;;12.70;1.35;;;;;;;34.00;16.59;100397.34;5051052;28;20049;-67
2021/06/17 05:41:20;;;;;;;3.40;1.20;;;;;;;33.88;17.26;100382.44;5051350;28;20045;-66
2021/06/17 05:43:46;;;;;;;7.65;1.50;;;;;;;34.42;16.73;100391.69;5049700;28;20557;-67
2021/06/17 05:46:12;;;;;;;4.22;1.20;;;;;;;34.08;16.11;100399.22;5047564;28;20049;-67
2021/06/17 05:48:38;;;;;;;4.35;1.50;;;;;;;33.75;16.69;100401.94;5049464;28;20045;-66
2021/06/17 05:51:04;;;;;;;6.85;1.35;;;;;;;34.19;15.59;100395.28;5049565;28;20048;-65
2021/06/17 05:53:30;;;;;;;8.18;1.30;;;;;;;33.56;17.03;100396.00;5049587;28;20082;-67
2021/06/17 05:55:56;;;;;;;1.77;1.67;;;;;;;33.44;16.91;100409.03;5048872;28;20456;-66
2021/06/17 05:58:22;;;;;;;5.25;1.70;;;;;;;33.68;17.00;100410.94;5048527;28;20127;-66
2021/06/17 06:00:47;;;;;;;4.07;1.38;;;;;;;33.78;16.40;100406.19;5050640;28;20394;-67
2021/06/17 06:03:13;;;;;;;6.72;1.55;;;;;;;32.72;17.70;100407.81;5051136;28;20041;-67
2021/06/17 06:05:39;;;;;;;3.17;1.60;;;;;;;32.78;17.59;100396.34;5051156;28;20332;-67
2021/06/17 06:08:11;;;;;;;8.77;1.75;;;;;;;34.21;16.24;100410.41;5051548;28;20053;-67
2021/06/17 06:10:41;;;;;;;4.05;2.13;;;;;;;33.22;17.29;100404.22;5049663;28;20098;-68
2021/06/17 06:13:07;;;;;;;3.25;1.70;;;;;;;35.37;15.46;100410.63;5033542;28;20044;-67
2021/06/17 06:15:34;;;;;;;12.38;2.30;;;;;;;36.75;14.08;100412.03;5051177;28;20468;-68
2021/06/17 06:18:08;;;;;;;8.02;1.83;;;;;;;37.16;13.99;100425.13;5066688;28;20075;-66
2021/06/17 06:20:35;;;;;;;8.15;1.70;;;;;;;34.88;15.39;100396.44;5033385;28;20431;-69
2021/06/17 06:23:00;;;;;;;8.98;2.00;;;;;;;34.49;16.13;100408.16;5051141;28;20410;-67
2021/06/17 06:25:26;;;;;;;7.35;1.80;;;;;;;34.90;17.60;100414.28;5066784;28;20049;-66
2021/06/17 06:27:52;;;;;;;6.53;2.05;;;;;;;35.38;16.01;100425.09;5051553;28;20437;-65
2021/06/17 06:30:18;;;;;;;4.72;2.03;;;;;;;36.28;15.88;100423.28;5066740;28;20561;-66
2021/06/17 06:32:44;;;;;;;6.45;1.75;;;;;;;35.82;15.82;100428.88;5049903;28;20083;-67
2021/06/17 06:35:10;;;;;;;7.63;1.83;;;;;;;34.95;15.77;100436.38;5032656;28;20490;-69
2021/06/17 06:37:37;;;;;;;5.38;1.80;;;;;;;34.41;16.46;100429.91;5033248;28;20338;-66
2021/06/17 06:40:03;;;;;;;7.95;1.77;;;;;;;34.27;17.11;100428.72;5066560;28;20538;-68
2021/06/17 06:42:29;;;;;;;6.35;1.67;;;;;;;34.88;16.08;100418.19;5033706;28;20041;-67
2021/06/17 06:44:55;;;;;;;4.18;1.50;;;;;;;34.44;16.36;100417.84;5051055;28;20041;-67
2021/06/17 06:47:21;;;;;;;8.35;1.80;;;;;;;35.04;16.03;100415.41;5049503;28;20045;-67
2021/06/17 06:49:46;;;;;;;7.72;1.67;;;;;;;36.21;14.77;100433.25;5050836;28;20044;-67
2021/06/17 06:52:12;;;;;;;4.00;1.80;;;;;;;35.81;15.14;100432.63;5066618;28;20102;-67
2021/06/17 06:54:38;;;;;;;3.05;1.40;;;;;;;34.88;14.87;100432.63;5050875;28;20420;-67
2021/06/17 06:57:04;;;;;;;2.10;1.40;;;;;;;34.09;15.42;100431.63;5049671;28;20041;-67
2021/06/17 06:59:30;;;;;;;7.55;1.50;;;;;;;35.31;14.86;100444.81;5051007;28;20132;-67
2021/06/17 07:01:57;;;;;;;2.55;1.33;;;;;;;35.03;14.66;100447.22;5050761;28;20651;-66
2021/06/17 07:04:22;;;;;;;2.63;1.40;;;;;;;36.23;14.27;100461.16;5050804;28;20047;-67
2021/06/17 07:06:48;;;;;;;5.10;1.50;;;;;;;35.33;14.97;100442.81;5050588;28;20045;-69
2021/06/17 07:09:14;;;;;;;5.47;1.35;;;;;;;35.93;13.82;100435.75;5066003;28;20109;-68
2021/06/17 07:11:40;;;;;;;6.95;1.58;;;;;;;36.42;13.70;100446.19;5066041;28;20052;-67
2021/06/17 07:14:07;;;;;;;3.58;1.50;;;;;;;36.24;13.85;100468.28;5050547;28;20037;-66
2021/06/17 07:16:33;;;;;;;2.58;1.20;;;;;;;33.88;15.20;100476.63;5049253;28;20048;-65
2021/06/17 07:19:01;;;;;;;2.42;1.20;;;;;;;34.40;15.60;100450.81;4999999;28;20072;-67
2021/06/17 07:21:28;;;;;;;2.90;1.33;;;;;;;35.30;14.72;100453.16;5050883;28;20102;-68
2021/06/17 07:23:54;;;;;;;4.18;1.35;;;;;;;34.10;15.52;100470.50;5048939;28;20141;-68
2021/06/17 07:26:22;;;;;;;2.25;1.50;;;;;;;33.12;16.78;100475.72;5050037;28;20132;-66
2021/06/17 07:28:49;;;;;;;1.50;1.40;;;;;;;34.07;15.77;100477.13;5050212;28;20094;-66
2021/06/17 07:31:15;;;;;;;5.35;1.58;;;;;;;34.77;15.44;100464.78;5016158;28;20056;-67
2021/06/17 07:33:41;;;;;;;2.75;1.55;;;;;;;32.81;16.91;100485.44;5050273;28;20037;-67
2021/06/17 07:36:06;;;;;;;4.70;1.60;;;;;;;32.82;16.90;100468.16;5049216;28;20475;-67
2021/06/17 07:38:32;;;;;;;4.63;1.60;;;;;;;33.51;15.82;100477.06;5048834;28;20048;-67
2021/06/17 07:40:58;;;;;;;2.63;1.42;;;;;;;34.81;15.22;100469.69;5048596;28;20040;-67
2021/06/17 07:43:24;;;;;;;2.97;1.20;;;;;;;36.10;14.76;100478.16;5048535;28;20056;-67
2021/06/17 07:45:50;;;;;;;2.33;1.35;;;;;;;36.33;13.94;100459.03;5048329;28;20363;-66
2021/06/17 07:48:15;;;;;;;2.10;1.23;;;;;;;34.40;15.53;100477.97;5065541;28;20214;-67
2021/06/17 07:50:41;;;;;;;6.10;1.50;;;;;;;33.92;16.03;100476.09;5066000;28;20080;-65
2021/06/17 07:53:08;;;;;;;2.83;1.23;;;;;;;34.44;16.01;100478.47;5049420;28;20509;-64
2021/06/17 07:55:35;;;;;;;1.20;1.20;;;;;;;34.75;15.69;100475.81;5049159;28;20513;-65
2021/06/17 07:58:00;;;;;;;1.38;1.20;;;;;;;34.90;15.30;100467.81;5051155;28;20406;-67
2021/06/17 08:00:29;;;;;;;6.43;1.63;;;;;;;35.03;15.28;100466.25;5069454;28;20040;-67
2021/06/17 08:02:59;;;;;;;4.53;1.30;;;;;;;34.39;15.69;100489.88;5019991;28;20051;-67
2021/06/17 08:05:25;;;;;;;2.90;1.42;;;;;;;35.55;14.72;100479.22;5035936;28;20136;-67
2021/06/17 08:07:51;;;;;;;3.42;1.40;;;;;;;35.59;15.00;100491.44;5035862;28;20041;-68
2021/06/17 08:10:17;;;;;;;4.97;2.65;;;;;;;34.82;15.13;100473.25;5069341;28;20075;-65
2021/06/17 08:12:43;;;;;;;1.50;1.40;;;;;;;36.13;15.24;100488.66;5052150;28;20047;-67
2021/06/17 08:15:09;;;;;;;2.10;1.30;;;;;;;35.38;15.54;100496.69;5052256;28;20040;-66
2021/06/17 08:17:35;;;;;;;4.57;1.40;;;;;;;34.13;16.33;100494.59;5019059;28;20064;-66
2021/06/17 08:20:01;;;;;;;2.03;1.40;;;;;;;35.42;15.48;100489.84;5053181;28;20486;-68
2021/06/17 08:22:28;;;;;;;7.82;1.83;;;;;;;34.62;15.43;100508.16;5053409;28;20037;-67
2021/06/17 08:24:54;;;;;;;3.50;1.40;;;;;;;33.85;16.83;100496.81;5019455;28;20417;-65
2021/06/17 08:27:20;;;;;;;3.30;1.55;;;;;;;34.04;16.73;100498.34;5053708;28;20506;-67
2021/06/17 08:29:46;;;;;;;3.35;1.50;;;;;;;34.67;16.28;100481.28;5053302;28;20445;-67
2021/06/17 08:32:12;;;;;;;5.32;1.60;;;;;;;35.73;14.78;100486.25;5051921;28;20037;-68
2021/06/17 08:34:38;;;;;;;4.53;1.33;;;;;;;36.05;14.52;100496.91;5053867;28;20041;-65
2021/06/17 08:37:05;;;;;;;4.28;1.55;;;;;;;36.13;14.65;100490.53;5052401;28;20152;-66
2021/06/17 08:39:32;;;;;;;2.47;1.30;;;;;;;36.15;14.73;100494.78;5053598;28;20041;-65
2021/06/17 08:41:57;;;;;;;3.83;1.80;;;;;;;36.64;14.19;100491.59;5053676;28;20076;-66
2021/06/17 08:44:24;;;;;;;5.82;1.45;;;;;;;36.24;15.18;100499.13;5053642;28;20084;-66
2021/06/17 08:46:51;;;;;;;5.53;1.70;;;;;;;35.42;14.96;100503.47;5053900;28;20521;-65
2021/06/17 08:49:19;;;;;;;4.07;1.40;;;;;;;35.74;14.43;100496.13;5053577;28;20048;-67
2021/06/17 08:51:49;;;;;;;4.57;1.50;;;;;;;35.90;14.02;100488.72;5068748;28;20045;-65
2021/06/17 08:54:19;;;;;;;3.08;1.27;;;;;;;36.03;14.68;100488.09;5035285;28;20490;-66
2021/06/17 08:56:48;;;;;;;5.20;2.00;;;;;;;35.79;15.41;100490.97;5053271;28;20045;-66
2021/06/17 08:59:14;;;;;;;8.63;1.50;;;;;;;34.67;16.05;100478.56;5053415;28;20047;-66
2021/06/17 09:01:40;;;;;;;3.70;1.40;;;;;;;34.54;16.32;100489.16;5018740;28;20172;-67
2021/06/17 09:04:25;;;;;;;2.72;1.10;;;;;;;34.23;16.74;100481.72;5068522;28;20142;-66
2021/06/17 09:07:08;;;;;;;5.65;1.30;;;;;;;33.96;16.45;100479.34;5034729;28;20141;-67
2021/06/17 09:09:37;;;;;;;3.03;1.00;;;;;;;33.64;17.16;100475.56;5050568;28;20107;-67
2021/06/17 09:12:05;;;;;;;2.90;1.10;;;;;;;32.60;17.33;100465.97;5052664;28;20135;-67
2021/06/17 09:14:30;;;;;;;4.30;1.15;;;;;;;32.35;17.90;100468.53;5067975;28;20135;-67
2021/06/17 09:17:08;;;;;;;3.53;1.25;;;;;;;30.80;18.68;100465.25;5052001;28;20570;-67
2021/06/17 09:19:39;;;;;;;5.80;1.10;;;;;;;30.38;19.58;100468.31;5051379;28;20124;-65
2021/06/17 09:22:07;;;;;;;4.00;1.13;;;;;;;30.21;20.99;100455.59;5068152;28;20387;-67
2021/06/17 09:24:35;;;;;;;9.65;1.45;;;;;;;29.61;20.14;100458.44;5018764;28;20430;-66
2021/06/17 09:27:22;;;;;;;6.47;1.48;;;;;;;28.08;22.00;100467.56;5035056;28;20445;-67
2021/06/17 09:29:49;;;;;;;3.83;1.50;;;;;;;27.06;24.27;100462.66;5052875;28;20037;-66
2021/06/17 09:32:28;;;;;;;5.53;1.38;;;;;;;26.62;24.90;100474.22;5068074;28;20143;-65
2021/06/17 09:34:54;;;;;;;5.15;1.60;;;;;;;26.50;23.92;100454.59;5050927;28;20076;-66
2021/06/17 09:37:33;;;;;;;3.83;1.33;;;;;;;26.24;24.63;100468.19;5034535;28;20470;-66
2021/06/17 09:40:00;;;;;;;10.75;1.65;;;;;;;26.40;24.49;100465.19;5034642;28;20526;-66
2021/06/17 09:42:32;;;;;;;4.47;1.35;;;;;;;26.56;24.35;100454.94;5051506;28;20052;-66
2021/06/17 09:45:00;;;;;;;;;;;;;;;26.16;24.94;100459.88;5051365;28;20138;-67
2021/06/17 09:47:32;;;;;;;7.00;1.27;;;;;;;25.91;24.78;100457.34;5050651;28;19928;-67
2021/06/17 09:50:00;;;;;;;6.60;1.20;;;;;;;25.83;25.42;100467.81;5001187;28;20144;-67
2021/06/17 09:52:41;;;;;;;1.10;1.10;;;;;;;25.94;24.64;100451.75;5051559;28;20049;-65
2021/06/17 09:55:07;;;;;;;7.75;1.20;;;;;;;26.12;24.66;100449.50;5050702;28;20551;-64
2021/06/17 09:57:37;;;;;;;5.05;1.52;;;;;;;25.91;25.16;100457.34;5067579;28;20079;-68
2021/06/17 10:00:11;;;;;;;7.88;1.48;;;;;;;25.71;25.32;100461.56;5034538;28;20044;-66
2021/06/17 10:02:40;;;;;;;4.50;1.20;;;;;;;25.98;25.69;100461.28;5050567;28;20045;-65
2021/06/17 10:05:16;;;;;;;2.92;1.50;;;;;;;26.12;24.76;100465.59;5050135;28;20051;-67
2021/06/17 10:07:43;;;;;;;3.33;1.30;;;;;;;26.20;23.85;100457.81;5049782;28;20048;-68
2021/06/17 10:10:10;;;;;;;2.17;0.90;;;;;;;26.32;24.74;100458.69;5032941;28;20052;-66
2021/06/17 10:12:37;;;;;;;5.50;1.20;;;;;;;26.27;24.45;100459.03;5050816;28;20572;-68
2021/06/17 10:15:04;;;;;;;3.45;1.08;;;;;;;26.16;24.49;100443.78;5050144;28;20049;-65
2021/06/17 10:17:31;;;;;;;2.38;1.00;;;;;;;26.17;24.78;100464.28;5033892;28;20057;-65
2021/06/17 10:19:57;;;;;;;3.78;1.15;;;;;;;25.77;25.02;100453.03;5049651;28;20047;-67
2021/06/17 10:22:28;;;;;;;12.48;1.30;;;;;;;25.49;25.22;100456.94;5049922;28;20044;-67
2021/06/17 10:24:54;;;;;;;4.72;1.60;;;;;;;25.19;25.02;100464.53;5066999;28;20414;-66
2021/06/17 10:27:30;;;;;;;4.72;1.10;;;;;;;25.36;25.29;100440.06;5050015;28;20114;-65
2021/06/17 10:29:56;;;;;;;3.15;1.35;;;;;;;25.62;25.05;100463.06;5066469;28;20076;-63
2021/06/17 10:32:33;;;;;;;4.88;1.20;;;;;;;25.61;25.12;100465.88;5051230;28;20533;-63
2021/06/17 10:34:59;;;;;;;6.70;1.70;;;;;;;25.65;25.16;100448.59;5066201;28;20049;-65
2021/06/17 10:37:30;;;;;;;5.90;1.30;;;;;;;25.76;24.92;100456.69;5049799;28;20139;-65
2021/06/17 10:40:04;;;;;;;4.90;1.45;;;;;;;25.85;25.45;100457.81;5050639;28;20414;-65
2021/06/17 10:42:31;;;;;;;4.43;1.42;;;;;;;25.95;25.58;100450.78;5050932;28;20045;-67
2021/06/17 10:44:59;;;;;;;3.10;1.23;;;;;;;25.98;25.25;100461.28;5049916;28;20059;-73
2021/06/17 10:47:53;;;;;;;2.28;1.23;;;;;;;25.85;25.71;100452.47;5049780;28;20052;-67
2021/06/17 10:50:38;;;;;;;3.50;1.33;;;;;;;26.03;25.12;100452.91;5016313;28;20110;-69
2021/06/17 10:53:23;;;;;;;3.95;1.30;;;;;;;26.06;24.84;100456.19;5032383;28;20029;-66
2021/06/17 10:55:53;;;;;;;4.80;1.90;;;;;;;25.88;24.52;100446.88;5032126;28;20041;-68
2021/06/17 10:58:45;;;;;;;12.35;1.70;;;;;;;25.72;25.19;100451.69;5050521;28;20453;-67
2021/06/17 11:01:27;;;;;;;3.55;1.38;;;;;;;25.80;25.60;100454.63;5025404;28;20530;-69
2021/06/17 11:04:14;;;;;;;4.25;1.80;;;;;;;25.63;25.54;100437.97;5051103;28;20064;-66
2021/06/17 11:06:49;;;;;;;7.70;1.65;;;;;;;25.70;25.83;100448.28;5066558;28;20136;-68
2021/06/17 11:09:40;;;;;;;8.75;1.25;;;;;;;25.73;25.86;100462.28;5051356;28;20155;-70
2021/06/17 11:12:13;;;;;;;4.03;1.25;;;;;;;25.62;25.76;100473.78;5050972;28;20131;-66
2021/06/17 11:14:38;;;;;;;;;;;;;;;25.48;26.11;100465.06;5051905;28;20041;-67
2021/06/17 11:17:30;;;;;;;2.78;1.40;;;;;;;25.60;26.18;100454.28;5051583;28;20425;-68
2021/06/17 11:19:59;;;;;;;2.25;1.20;;;;;;;25.47;26.49;100453.50;5050986;28;20049;-68
2021/06/17 11:22:40;;;;;;;3.42;1.67;;;;;;;25.69;26.70;100465.31;5051067;28;20126;-67
2021/06/17 11:25:18;;;;;;;3.13;1.50;;;;;;;25.69;26.47;100459.97;5049481;28;20533;-66
2021/06/17 11:27:58;;;;;;;6.03;1.70;;;;;;;25.75;26.05;100446.09;5051101;28;20044;-68
2021/06/17 11:30:41;;;;;;;11.20;1.80;;;;;;;25.64;26.25;100447.72;5049658;28;20498;-67
2021/06/17 11:33:18;;;;;;;5.57;1.70;;;;;;;25.64;25.70;100463.81;5052818;28;20045;-65
2021/06/17 11:36:09;;;;;;;5.32;1.42;;;;;;;25.49;25.61;100456.94;5053740;28;20568;-65
2021/06/17 11:38:36;;;;;;;9.73;1.40;;;;;;;25.53;25.75;100453.03;5053515;28;20057;-66